createdAt,value
2023-05-19T00:04:07.726Z,67.87
2023-05-19T00:06:38.423Z,68.10
2023-05-19T00:09:09.746Z,67.82
2023-05-19T00:11:39.115Z,67.97
2023-05-19T00:14:07.867Z,67.93
2023-05-19T00:16:37.928Z,67.94
2023-05-19T00:19:06.490Z,68.10
2023-05-19T00:21:33.900Z,68.10
2023-05-19T00:24:02.272Z,67.98
2023-05-19T00:26:29.543Z,67.97
2023-05-19T00:28:56.573Z,67.96
2023-05-19T00:31:24.256Z,67.94
2023-05-19T00:33:52.109Z,68.08
2023-05-19T00:36:19.373Z,68.23
2023-05-19T00:38:46.491Z,68.05
2023-05-19T00:41:15.205Z,68.46
2023-05-19T00:43:42.301Z,68.24
2023-05-19T00:46:11.088Z,68.45
2023-05-19T00:48:39.455Z,68.26
2023-05-19T00:51:07.107Z,68.26
2023-05-19T00:53:35.467Z,68.41
2023-05-19T00:56:03.744Z,68.57
2023-05-19T00:58:33.667Z,68.58
2023-05-19T01:01:05.315Z,68.55
2023-05-19T01:03:35.213Z,68.64
2023-05-19T01:06:07.242Z,68.55
2023-05-19T01:08:37.735Z,68.63
2023-05-19T01:11:06.807Z,68.80
2023-05-19T01:13:35.611Z,69.07
2023-05-19T01:16:07.615Z,68.74
2023-05-19T01:18:46.391Z,68.89
2023-05-19T01:21:44.498Z,69.00
2023-05-19T01:24:33.448Z,68.72
2023-05-19T01:27:31.484Z,68.56
2023-05-19T01:30:25.883Z,69.18
2023-05-19T01:32:57.296Z,69.15
2023-05-19T01:35:26.242Z,68.92
2023-05-19T01:37:56.478Z,68.79
2023-05-19T01:40:25.310Z,68.83
2023-05-19T01:42:56.629Z,68.87
2023-05-19T01:45:26.427Z,68.93
2023-05-19T01:47:56.944Z,68.97
2023-05-19T01:50:23.977Z,69.10
2023-05-19T01:52:52.099Z,69.31
2023-05-19T01:55:19.312Z,69.20
2023-05-19T01:58:00.158Z,69.37
2023-05-19T02:00:37.736Z,69.33
2023-05-19T02:03:17.533Z,69.50
2023-05-19T02:05:52.476Z,69.27
2023-05-19T02:08:27.155Z,69.24
2023-05-19T02:11:00.695Z,69.62
2023-05-19T02:13:36.546Z,69.60
2023-05-19T02:16:06.480Z,69.42
2023-05-19T02:18:35.382Z,69.50
2023-05-19T02:21:02.814Z,69.18
2023-05-19T02:23:31.144Z,69.18
2023-05-19T02:25:58.277Z,69.40
2023-05-19T02:28:28.373Z,69.55
2023-05-19T02:30:55.486Z,69.28
2023-05-19T02:33:26.152Z,69.06
2023-05-19T02:35:53.476Z,69.23
2023-05-19T02:38:21.431Z,69.18
2023-05-19T02:40:48.784Z,69.27
2023-05-19T02:43:16.132Z,69.13
2023-05-19T02:45:43.115Z,69.46
2023-05-19T02:48:10.762Z,69.62
2023-05-19T02:50:39.621Z,69.65
2023-05-19T02:53:06.949Z,69.88
2023-05-19T02:55:33.877Z,69.79
2023-05-19T02:58:01.593Z,69.68
2023-05-19T03:00:28.642Z,69.80
2023-05-19T03:02:55.972Z,69.85
2023-05-19T03:05:23.065Z,69.78
2023-05-19T03:07:51.916Z,69.92
2023-05-19T03:10:18.982Z,69.90
2023-05-19T03:12:47.060Z,69.63
2023-05-19T03:15:15.132Z,69.84
2023-05-19T03:17:42.798Z,69.71
2023-05-19T03:20:11.023Z,69.86
2023-05-19T03:22:38.332Z,69.64
2023-05-19T03:25:07.552Z,69.68
2023-05-19T03:27:34.769Z,69.58
2023-05-19T03:30:02.704Z,69.80
2023-05-19T03:32:32.937Z,69.94
2023-05-19T03:34:59.862Z,70.15
2023-05-19T03:37:27.020Z,69.97
2023-05-19T03:39:54.382Z,69.84
2023-05-19T03:42:23.072Z,70.04
2023-05-19T03:44:50.058Z,69.89
2023-05-19T03:47:17.411Z,70.24
2023-05-19T03:49:44.402Z,70.09
2023-05-19T03:52:13.009Z,70.36
2023-05-19T03:54:42.180Z,70.13
2023-05-19T03:57:10.202Z,70.03
2023-05-19T03:59:38.627Z,70.08
2023-05-19T04:02:06.034Z,70.00
2023-05-19T04:04:33.675Z,70.09
2023-05-19T04:07:01.307Z,70.02
2023-05-19T04:09:28.598Z,69.92
2023-05-19T04:11:55.931Z,69.87
2023-05-19T04:14:23.643Z,69.78
2023-05-19T04:16:53.772Z,69.68
2023-05-19T04:19:20.805Z,70.20
2023-05-19T04:21:47.989Z,70.43
2023-05-19T04:24:15.330Z,71.73
2023-05-19T04:26:46.020Z,71.96
2023-05-19T04:29:13.966Z,71.35
2023-05-19T04:31:42.074Z,70.58
2023-05-19T04:34:10.526Z,70.32
2023-05-19T04:36:38.548Z,70.41
2023-05-19T04:39:09.389Z,69.91
2023-05-19T04:41:40.195Z,69.07
2023-05-19T04:44:09.068Z,68.69
2023-05-19T04:46:36.556Z,70.07
2023-05-19T04:49:03.744Z,69.62
2023-05-19T04:51:32.495Z,69.05
2023-05-19T04:53:59.492Z,68.96
2023-05-19T04:56:27.409Z,69.26
2023-05-19T04:58:54.470Z,69.42
2023-05-19T05:01:26.442Z,68.82
2023-05-19T05:03:59.215Z,68.38
2023-05-19T05:06:28.730Z,68.51
2023-05-19T05:08:57.710Z,68.34
2023-05-19T05:11:25.798Z,68.38
2023-05-19T05:13:53.726Z,68.12
2023-05-19T05:16:21.546Z,68.09
2023-05-19T05:18:49.174Z,68.36
2023-05-19T05:21:17.017Z,68.48
2023-05-19T05:23:44.590Z,68.37
2023-05-19T05:26:19.012Z,68.27
2023-05-19T05:28:46.037Z,68.37
2023-05-19T05:31:13.675Z,68.58
2023-05-19T05:33:41.526Z,68.15
2023-05-19T05:36:09.944Z,68.47
2023-05-19T05:38:37.071Z,68.80
2023-05-19T05:41:04.703Z,68.75
2023-05-19T05:43:34.947Z,68.80
2023-05-19T05:46:03.678Z,68.49
2023-05-19T05:48:31.274Z,68.50
2023-05-19T05:51:00.025Z,68.39
2023-05-19T05:53:30.993Z,67.79
2023-05-19T05:55:58.770Z,67.88
2023-05-19T05:58:25.915Z,67.82
2023-05-19T06:00:57.667Z,67.56
2023-05-19T06:03:25.025Z,67.40
2023-05-19T06:08:34.265Z,67.67
2023-05-19T06:11:01.734Z,67.78
2023-05-19T06:13:28.999Z,68.17
2023-05-19T06:15:58.798Z,68.26
2023-05-19T06:18:27.911Z,68.29
2023-05-19T06:20:55.316Z,68.03
2023-05-19T06:23:22.772Z,67.96
2023-05-19T06:25:50.018Z,68.03
2023-05-19T06:28:17.068Z,68.04
2023-05-19T06:30:44.471Z,68.15
2023-05-19T06:33:13.429Z,67.63
2023-05-19T06:35:41.049Z,67.26
2023-05-19T06:38:08.082Z,69.12
2023-05-19T06:40:37.030Z,69.97
2023-05-19T06:43:04.965Z,71.36
2023-05-19T06:45:32.373Z,71.77
2023-05-19T06:48:00.685Z,73.08
2023-05-19T06:50:29.557Z,72.17
2023-05-19T06:52:57.342Z,71.35
2023-05-19T06:55:25.208Z,72.70
2023-05-19T06:57:52.246Z,72.14
2023-05-19T07:00:31.123Z,71.38
2023-05-19T07:02:58.572Z,72.74
2023-05-19T07:05:26.286Z,72.34
2023-05-19T07:07:55.131Z,72.28
2023-05-19T07:10:22.625Z,72.00
2023-05-19T07:12:49.830Z,71.46
2023-05-19T07:15:17.194Z,70.99
2023-05-19T07:17:44.361Z,70.64
2023-05-19T07:20:12.631Z,70.10
2023-05-19T07:22:40.228Z,69.91
2023-05-19T07:25:09.948Z,69.60
2023-05-19T07:27:37.498Z,69.40
2023-05-19T07:30:05.490Z,68.92
2023-05-19T07:32:32.673Z,69.04
2023-05-19T07:35:00.088Z,68.86
2023-05-19T07:37:27.486Z,68.75
2023-05-19T07:39:54.668Z,68.39
2023-05-19T07:42:23.147Z,68.05
2023-05-19T07:44:50.636Z,67.93
2023-05-19T07:47:19.097Z,67.77
2023-05-19T07:49:48.605Z,67.61
2023-05-19T07:52:18.262Z,67.43
2023-05-19T07:54:45.702Z,67.27
2023-05-19T07:57:12.861Z,66.85
2023-05-19T07:59:41.768Z,66.81
2023-05-19T08:02:08.971Z,66.75
2023-05-19T08:04:36.779Z,66.51
2023-05-19T08:07:04.221Z,66.62
2023-05-19T08:09:31.699Z,66.29
2023-05-19T08:12:01.517Z,66.12
2023-05-19T08:14:28.831Z,66.08
2023-05-19T08:16:57.183Z,65.71
2023-05-19T08:19:24.569Z,65.58
2023-05-19T08:21:51.601Z,65.87
2023-05-19T08:24:19.730Z,65.97
2023-05-19T08:26:46.794Z,65.82
2023-05-19T08:29:14.200Z,65.69
2023-05-19T08:31:41.487Z,65.25
2023-05-19T08:34:10.605Z,64.99
2023-05-19T08:36:37.964Z,64.71
2023-05-19T08:39:06.783Z,64.76
2023-05-19T08:41:34.148Z,64.66
2023-05-19T08:44:01.822Z,64.17
2023-05-19T08:46:29.525Z,63.66
2023-05-19T08:49:02.064Z,63.09
2023-05-19T08:51:39.153Z,62.96
2023-05-19T08:54:14.684Z,62.71
2023-05-19T08:56:43.583Z,62.60
2023-05-19T08:59:12.054Z,62.33
2023-05-19T09:01:39.934Z,62.44
2023-05-19T09:04:07.737Z,62.44
2023-05-19T09:06:36.248Z,62.22
2023-05-19T09:09:04.039Z,62.12
2023-05-19T09:11:31.020Z,61.74
2023-05-19T09:13:58.584Z,61.85
2023-05-19T09:16:27.863Z,61.39
2023-05-19T09:18:58.596Z,61.35
2023-05-19T09:21:32.078Z,60.48
2023-05-19T09:24:05.141Z,60.86
2023-05-19T09:26:37.660Z,61.23
2023-05-19T09:29:11.425Z,61.01
2023-05-19T09:31:38.470Z,60.75
2023-05-19T09:34:12.996Z,60.68
2023-05-19T09:36:41.557Z,60.47
2023-05-19T09:39:16.536Z,60.23
2023-05-19T09:41:44.163Z,60.04
2023-05-19T09:44:21.707Z,59.75
2023-05-19T09:46:49.561Z,59.79
2023-05-19T09:49:21.861Z,59.05
2023-05-19T09:51:54.711Z,59.40
2023-05-19T09:54:24.537Z,59.16
2023-05-19T09:56:56.702Z,58.24
2023-05-19T09:59:25.344Z,57.74
2023-05-19T10:01:55.385Z,57.88
2023-05-19T10:04:23.467Z,58.00
2023-05-19T10:06:54.246Z,57.71
2023-05-19T10:09:25.685Z,57.75
2023-05-19T10:11:53.830Z,58.65
2023-05-19T10:14:24.581Z,58.50
2023-05-19T10:16:52.770Z,57.82
2023-05-19T10:19:22.589Z,57.27
2023-05-19T10:21:50.710Z,57.07
2023-05-19T10:24:18.965Z,56.81
2023-05-19T10:26:51.557Z,56.26
2023-05-19T10:29:23.244Z,56.25
2023-05-19T10:31:53.339Z,56.02
2023-05-19T10:34:43.837Z,56.07
2023-05-19T10:37:17.137Z,56.08
2023-05-19T10:39:45.016Z,55.87
2023-05-19T10:42:16.992Z,55.81
2023-05-19T10:44:58.451Z,55.61
2023-05-19T10:47:26.309Z,54.80
2023-05-19T10:49:54.238Z,55.47
2023-05-19T10:52:22.906Z,55.28
2023-05-19T10:54:51.438Z,55.19
2023-05-19T10:57:20.938Z,54.80
2023-05-19T10:59:49.610Z,56.12
2023-05-19T11:02:41.213Z,55.10
2023-05-19T11:05:09.841Z,54.26
2023-05-19T11:07:37.073Z,54.12
2023-05-19T11:10:07.849Z,54.15
2023-05-19T11:12:45.587Z,53.60
2023-05-19T11:15:14.503Z,53.72
2023-05-19T11:17:46.307Z,53.08
2023-05-19T11:20:22.533Z,53.91
2023-05-19T11:23:04.550Z,53.54
2023-05-19T11:25:46.766Z,52.79
2023-05-19T11:28:25.696Z,53.52
2023-05-19T11:30:54.989Z,53.42
2023-05-19T11:33:27.187Z,53.13
2023-05-19T11:35:57.920Z,52.83
2023-05-19T11:38:26.234Z,52.73
2023-05-19T11:40:53.908Z,53.60
2023-05-19T11:43:24.717Z,53.39
2023-05-19T11:45:51.886Z,53.58
2023-05-19T11:48:21.496Z,53.14
2023-05-19T11:50:48.647Z,52.94
2023-05-19T11:53:19.962Z,53.33
2023-05-19T11:55:48.569Z,53.14
2023-05-19T11:58:16.834Z,53.36
2023-05-19T12:00:47.538Z,52.18
2023-05-19T12:03:15.632Z,52.51
2023-05-19T12:05:46.046Z,52.44
2023-05-19T12:08:14.599Z,52.50
2023-05-19T12:10:42.032Z,52.49
2023-05-19T12:13:10.505Z,52.20
2023-05-19T12:15:38.106Z,51.35
2023-05-19T12:18:07.289Z,50.99
2023-05-19T12:20:38.045Z,51.19
2023-05-19T12:23:05.897Z,51.74
2023-05-19T12:25:33.369Z,51.49
2023-05-19T12:28:05.077Z,51.52
2023-05-19T12:30:33.785Z,50.85
2023-05-19T12:33:03.418Z,51.07
2023-05-19T12:35:36.318Z,51.01
2023-05-19T12:38:04.792Z,51.02
2023-05-19T12:40:33.952Z,51.41
2023-05-19T12:43:01.677Z,51.09
2023-05-19T12:45:29.018Z,50.90
2023-05-19T12:47:56.698Z,50.57
2023-05-19T12:50:30.564Z,50.27
2023-05-19T12:53:00.014Z,50.06
2023-05-19T12:55:27.319Z,49.68
2023-05-19T12:57:57.160Z,49.18
2023-05-19T13:00:32.727Z,50.57
2023-05-19T13:03:02.807Z,51.47
2023-05-19T13:05:31.502Z,51.60
2023-05-19T13:08:05.287Z,52.75
2023-05-19T13:10:34.073Z,53.42
2023-05-19T13:13:02.524Z,53.73
2023-05-19T13:15:34.394Z,53.70
2023-05-19T13:18:06.326Z,53.86
2023-05-19T13:20:34.521Z,52.86
2023-05-19T13:23:03.724Z,53.19
2023-05-19T13:25:31.052Z,52.85
2023-05-19T13:28:01.231Z,52.84
2023-05-19T13:30:28.508Z,52.18
2023-05-19T13:32:55.921Z,51.40
2023-05-19T13:35:23.234Z,51.19
2023-05-19T13:37:50.977Z,50.54
2023-05-19T13:40:20.385Z,51.30
2023-05-19T13:42:48.211Z,50.91
2023-05-19T13:45:15.702Z,51.37
2023-05-19T13:47:43.171Z,51.66
2023-05-19T13:50:11.038Z,52.06
2023-05-19T13:52:38.416Z,52.40
2023-05-19T13:55:07.052Z,52.43
2023-05-19T13:57:35.769Z,53.69
2023-05-19T14:00:04.596Z,54.58
2023-05-19T14:02:33.846Z,55.40
2023-05-19T14:05:01.028Z,55.82
2023-05-19T14:07:28.401Z,54.79
2023-05-19T14:09:55.514Z,54.10
2023-05-19T14:12:27.973Z,53.26
2023-05-19T14:15:03.426Z,52.31
2023-05-19T14:17:31.864Z,53.33
2023-05-19T14:20:00.671Z,52.57
2023-05-19T14:22:28.299Z,51.89
2023-05-19T14:24:55.514Z,51.25
2023-05-19T14:27:22.923Z,51.57
2023-05-19T14:29:50.353Z,51.30
2023-05-19T14:32:19.739Z,51.01
2023-05-19T14:34:47.542Z,51.10
2023-05-19T14:37:14.793Z,50.34
2023-05-19T14:39:41.858Z,49.24
2023-05-19T14:42:09.164Z,48.77
2023-05-19T14:44:37.629Z,49.02
2023-05-19T14:47:07.538Z,48.18
2023-05-19T14:49:38.612Z,49.57
2023-05-19T14:52:07.301Z,48.51
2023-05-19T14:54:34.569Z,48.80
2023-05-19T14:57:03.035Z,48.19
2023-05-19T14:59:30.347Z,48.29
2023-05-19T15:01:57.764Z,47.70
2023-05-19T15:04:25.152Z,48.31
2023-05-19T15:07:05.682Z,47.69
2023-05-19T15:09:37.742Z,48.18
2023-05-19T15:12:05.550Z,48.60
2023-05-19T15:14:32.643Z,47.12
2023-05-19T15:17:00.294Z,47.47
2023-05-19T15:19:27.558Z,47.15
2023-05-19T15:21:56.498Z,47.24
2023-05-19T15:24:25.142Z,47.40
2023-05-19T15:26:52.577Z,48.47
2023-05-19T15:29:19.714Z,48.18
2023-05-19T15:31:50.229Z,47.81
2023-05-19T15:34:18.336Z,49.33
2023-05-19T15:36:45.802Z,49.73
2023-05-19T15:39:14.605Z,49.07
2023-05-19T15:41:41.949Z,49.22
2023-05-19T15:44:09.224Z,49.70
2023-05-19T15:46:36.735Z,49.87
2023-05-19T15:49:04.296Z,48.96
2023-05-19T15:51:32.263Z,48.80
2023-05-19T15:53:59.666Z,48.74
2023-05-19T15:56:28.364Z,48.47
2023-05-19T15:58:55.329Z,48.74
2023-05-19T16:01:22.882Z,48.55
2023-05-19T16:03:50.428Z,47.83
2023-05-19T16:06:17.983Z,48.32
2023-05-19T16:08:45.210Z,48.38
2023-05-19T16:11:12.557Z,48.07
2023-05-19T16:13:41.537Z,47.63
2023-05-19T16:16:09.601Z,47.55
2023-05-19T16:18:36.842Z,46.87
2023-05-19T16:21:04.586Z,47.38
2023-05-19T16:23:31.864Z,47.72
2023-05-19T16:26:00.416Z,47.46
2023-05-19T16:28:28.830Z,47.80
2023-05-19T16:30:59.687Z,48.20
2023-05-19T16:33:27.280Z,50.70
2023-05-19T16:35:54.772Z,52.92
2023-05-19T16:38:21.838Z,55.31
2023-05-19T16:40:49.204Z,56.95
2023-05-19T16:43:16.279Z,59.52
2023-05-19T16:45:43.589Z,60.33
2023-05-19T16:48:12.269Z,60.90
2023-05-19T16:50:39.937Z,60.87
2023-05-19T16:53:07.200Z,61.65
2023-05-19T16:55:34.720Z,61.86
2023-05-19T16:58:01.731Z,62.31
2023-05-19T17:00:29.858Z,62.70
2023-05-19T17:02:57.020Z,63.09
2023-05-19T17:05:27.296Z,63.13
2023-05-19T17:07:54.453Z,62.96
2023-05-19T17:10:22.142Z,63.28
2023-05-19T17:12:49.304Z,63.17
2023-05-19T17:15:16.809Z,63.25
2023-05-19T17:17:43.827Z,63.09
2023-05-19T17:20:13.331Z,63.00
2023-05-19T17:22:41.859Z,62.98
2023-05-19T17:25:09.652Z,62.80
2023-05-19T17:27:36.889Z,62.72
2023-05-19T17:30:04.876Z,62.69
2023-05-19T17:32:35.935Z,62.58
2023-05-19T17:35:05.405Z,62.37
2023-05-19T17:37:33.252Z,62.31
2023-05-19T17:40:02.089Z,62.35
2023-05-19T17:42:31.716Z,62.45
2023-05-19T17:44:59.475Z,62.29
2023-05-19T17:47:26.565Z,61.87
2023-05-19T17:49:54.105Z,61.68
2023-05-19T17:52:21.819Z,61.64
2023-05-19T17:54:50.593Z,61.57
2023-05-19T17:57:20.226Z,61.55
2023-05-19T17:59:48.175Z,61.57
2023-05-19T18:02:15.991Z,61.61
2023-05-19T18:04:43.797Z,61.84
2023-05-19T18:07:12.009Z,61.75
2023-05-19T18:12:43.470Z,62.01
2023-05-19T18:15:11.908Z,62.33
2023-05-19T18:17:38.968Z,62.79
2023-05-19T18:20:07.938Z,62.96
2023-05-19T18:22:34.920Z,63.19
2023-05-19T18:25:02.324Z,63.19
2023-05-19T18:27:29.879Z,63.15
2023-05-19T18:29:58.818Z,63.37
2023-05-19T18:32:25.708Z,63.22
2023-05-19T18:34:53.065Z,63.38
2023-05-19T18:37:21.789Z,63.42
2023-05-19T18:39:49.235Z,63.43
2023-05-19T18:42:16.694Z,63.36
2023-05-19T18:44:47.596Z,63.34
2023-05-19T18:47:16.455Z,63.22
2023-05-19T18:49:43.737Z,63.15
2023-05-19T18:52:11.212Z,63.27
2023-05-19T18:54:38.876Z,63.24
2023-05-19T18:57:06.641Z,63.17
2023-05-19T18:59:34.009Z,63.25
2023-05-19T19:02:01.273Z,63.45
2023-05-19T19:04:31.485Z,63.59
2023-05-19T19:06:58.948Z,63.88
2023-05-19T19:09:26.366Z,63.95
2023-05-19T19:11:53.459Z,63.96
2023-05-19T19:14:24.132Z,63.89
2023-05-19T19:16:51.231Z,63.95
2023-05-19T19:19:18.689Z,63.72
2023-05-19T19:21:47.318Z,63.67
2023-05-19T19:24:14.674Z,63.59
2023-05-19T19:26:41.961Z,63.55
2023-05-19T19:29:09.681Z,63.45
2023-05-19T19:31:36.785Z,63.60
2023-05-19T19:34:09.167Z,63.56
2023-05-19T19:36:36.408Z,63.75
2023-05-19T19:39:05.240Z,63.63
2023-05-19T19:41:33.452Z,63.71
2023-05-19T19:44:00.801Z,63.75
2023-05-19T19:46:27.946Z,63.69
2023-05-19T19:48:57.242Z,63.82
2023-05-19T19:51:24.693Z,64.14
2023-05-19T19:53:51.995Z,64.30
2023-05-19T19:56:22.193Z,64.54
2023-05-19T19:58:49.534Z,64.99
2023-05-19T20:01:16.695Z,65.13
2023-05-19T20:04:19.923Z,65.36
2023-05-19T20:06:47.384Z,65.30
2023-05-19T20:09:14.773Z,65.45
2023-05-19T20:11:43.603Z,65.63
2023-05-19T20:14:11.135Z,65.65
2023-05-19T20:16:40.400Z,65.60
2023-05-19T20:19:09.354Z,65.77
2023-05-19T20:21:36.729Z,65.89
2023-05-19T20:24:04.484Z,66.07
2023-05-19T20:26:31.656Z,66.03
2023-05-19T20:29:00.441Z,65.96
2023-05-19T20:31:27.524Z,66.01
2023-05-19T20:33:54.995Z,65.83
2023-05-19T20:36:22.163Z,66.02
2023-05-19T20:38:49.527Z,65.95
2023-05-19T20:41:16.635Z,66.05
2023-05-19T20:43:44.284Z,66.15
2023-05-19T20:46:12.911Z,66.09
2023-05-19T20:48:40.623Z,66.26
2023-05-19T20:51:07.752Z,66.28
2023-05-19T20:53:36.480Z,66.46
2023-05-19T20:56:05.276Z,66.56
2023-05-19T20:58:32.697Z,66.59
2023-05-19T21:00:59.726Z,66.64
2023-05-19T21:03:28.784Z,66.67
2023-05-19T21:05:55.740Z,67.22
2023-05-19T21:08:23.511Z,67.51
2023-05-19T21:10:51.032Z,67.99
2023-05-19T21:13:18.682Z,68.13
2023-05-19T21:15:46.164Z,68.00
2023-05-19T21:18:13.568Z,68.06
2023-05-19T21:20:42.078Z,67.89
2023-05-19T21:23:09.404Z,67.78
2023-05-19T21:25:36.446Z,67.74
2023-05-19T21:28:03.949Z,67.85
2023-05-19T21:30:31.341Z,67.76
2023-05-19T21:32:58.850Z,67.74
2023-05-19T21:35:26.427Z,67.77
2023-05-19T21:37:55.764Z,67.66
2023-05-19T21:40:22.871Z,67.57
2023-05-19T21:42:50.288Z,67.40
2023-05-19T21:45:17.569Z,67.61
2023-05-19T21:47:45.126Z,67.73
2023-05-19T21:50:15.729Z,67.91
2023-05-19T21:52:43.268Z,68.01
2023-05-19T21:55:11.891Z,68.16
2023-05-19T21:57:39.299Z,68.15
2023-05-19T22:00:08.213Z,68.16
2023-05-19T22:02:35.843Z,68.33
2023-05-19T22:05:03.148Z,68.56
2023-05-19T22:07:30.419Z,69.06
2023-05-19T22:09:57.574Z,68.99
2023-05-19T22:12:26.493Z,69.25
2023-05-19T22:14:53.520Z,69.17
2023-05-19T22:17:21.226Z,68.99
2023-05-19T22:19:48.297Z,68.83
2023-05-19T22:22:15.878Z,68.32
2023-05-19T22:24:43.100Z,68.25
2023-05-19T22:27:10.581Z,68.39
2023-05-19T22:29:39.119Z,68.36
2023-05-19T22:32:07.674Z,68.72
2023-05-19T22:34:35.009Z,68.75
2023-05-19T22:37:02.532Z,68.66
2023-05-19T22:39:29.522Z,68.93
2023-05-19T22:41:56.818Z,69.08
2023-05-19T22:44:23.993Z,68.94
2023-05-19T22:46:52.790Z,68.80
2023-05-19T22:49:20.980Z,68.66
2023-05-19T22:51:48.455Z,68.68
2023-05-19T22:54:15.741Z,68.76
2023-05-19T22:56:46.371Z,68.93
2023-05-19T22:59:13.814Z,68.93
2023-05-19T23:01:41.207Z,69.08
2023-05-19T23:04:11.527Z,69.25
2023-05-19T23:06:38.826Z,68.87
2023-05-19T23:09:05.923Z,68.94
2023-05-19T23:11:33.185Z,68.84
2023-05-19T23:14:00.635Z,68.70
2023-05-19T23:16:28.048Z,68.97
2023-05-19T23:18:55.609Z,68.74
2023-05-19T23:21:24.538Z,68.59
2023-05-19T23:23:51.972Z,68.69
2023-05-19T23:26:19.254Z,68.80
2023-05-19T23:28:46.239Z,68.65
2023-05-19T23:31:13.714Z,68.87
2023-05-19T23:33:46.142Z,68.66
2023-05-19T23:36:13.756Z,68.86
2023-05-19T23:38:42.200Z,68.69
2023-05-19T23:41:09.621Z,68.88
2023-05-19T23:43:37.820Z,68.71
2023-05-19T23:46:05.228Z,68.68
2023-05-19T23:48:33.643Z,68.71
2023-05-19T23:51:01.231Z,68.71
2023-05-19T23:53:28.450Z,68.45
2023-05-19T23:55:58.713Z,68.39
2023-05-19T23:58:26.057Z,67.94
